sensor_id;sensor_type;location;lat;lon;timestamp;P1;durP1;ratioP1;P2;durP2;ratioP2
47535;SDS011;33278;50.826;9.030;2022-12-20T00:00:05;5.83;;;5.27;;
47535;SDS011;33278;50.826;9.030;2022-12-20T00:02:36;5.80;;;5.20;;
47535;SDS011;33278;50.826;9.030;2022-12-20T00:05:06;5.43;;;4.93;;
47535;SDS011;33278;50.826;9.030;2022-12-20T00:07:37;6.22;;;5.63;;
47535;SDS011;33278;50.826;9.030;2022-12-20T00:10:07;5.80;;;5.23;;
47535;SDS011;33278;50.826;9.030;2022-12-20T00:12:38;6.05;;;5.45;;
47535;SDS011;33278;50.826;9.030;2022-12-20T00:15:08;6.13;;;5.53;;
47535;SDS011;33278;50.826;9.030;2022-12-20T00:17:39;5.20;;;4.70;;
47535;SDS011;33278;50.826;9.030;2022-12-20T00:20:09;5.70;;;5.20;;
47535;SDS011;33278;50.826;9.030;2022-12-20T00:22:40;5.38;;;4.88;;
47535;SDS011;33278;50.826;9.030;2022-12-20T00:25:10;5.40;;;4.90;;
47535;SDS011;33278;50.826;9.030;2022-12-20T00:27:41;4.85;;;4.38;;
47535;SDS011;33278;50.826;9.030;2022-12-20T00:30:12;5.27;;;4.77;;
47535;SDS011;33278;50.826;9.030;2022-12-20T00:32:43;5.83;;;5.23;;
47535;SDS011;33278;50.826;9.030;2022-12-20T00:35:14;5.63;;;5.05;;
47535;SDS011;33278;50.826;9.030;2022-12-20T00:37:44;5.57;;;5.07;;
47535;SDS011;33278;50.826;9.030;2022-12-20T00:40:15;5.03;;;4.53;;
47535;SDS011;33278;50.826;9.030;2022-12-20T00:42:45;5.45;;;4.95;;
47535;SDS011;33278;50.826;9.030;2022-12-20T00:45:15;4.67;;;4.20;;
47535;SDS011;33278;50.826;9.030;2022-12-20T00:47:46;5.35;;;4.85;;
47535;SDS011;33278;50.826;9.030;2022-12-20T00:50:16;5.33;;;4.83;;
47535;SDS011;33278;50.826;9.030;2022-12-20T00:52:46;5.30;;;4.80;;
47535;SDS011;33278;50.826;9.030;2022-12-20T00:55:16;6.00;;;5.40;;
47535;SDS011;33278;50.826;9.030;2022-12-20T00:57:47;5.37;;;4.87;;
47535;SDS011;33278;50.826;9.030;2022-12-20T01:00:17;5.63;;;4.97;;
47535;SDS011;33278;50.826;9.030;2022-12-20T01:02:48;5.50;;;5.00;;
47535;SDS011;33278;50.826;9.030;2022-12-20T01:05:18;5.30;;;4.80;;
47535;SDS011;33278;50.826;9.030;2022-12-20T01:07:48;5.25;;;4.75;;
47535;SDS011;33278;50.826;9.030;2022-12-20T01:10:19;5.07;;;4.57;;
47535;SDS011;33278;50.826;9.030;2022-12-20T01:12:49;5.05;;;4.55;;
47535;SDS011;33278;50.826;9.030;2022-12-20T01:15:20;4.97;;;4.47;;
47535;SDS011;33278;50.826;9.030;2022-12-20T01:17:50;4.73;;;4.33;;
47535;SDS011;33278;50.826;9.030;2022-12-20T01:20:20;4.97;;;4.47;;
47535;SDS011;33278;50.826;9.030;2022-12-20T01:22:51;5.33;;;4.83;;
47535;SDS011;33278;50.826;9.030;2022-12-20T01:25:21;5.03;;;4.60;;
47535;SDS011;33278;50.826;9.030;2022-12-20T01:27:51;4.90;;;4.43;;
47535;SDS011;33278;50.826;9.030;2022-12-20T01:30:21;5.03;;;4.53;;
47535;SDS011;33278;50.826;9.030;2022-12-20T01:32:52;4.03;;;3.63;;
47535;SDS011;33278;50.826;9.030;2022-12-20T01:35:22;5.03;;;4.53;;
47535;SDS011;33278;50.826;9.030;2022-12-20T01:37:52;4.68;;;4.25;;
47535;SDS011;33278;50.826;9.030;2022-12-20T01:40:23;5.37;;;4.87;;
47535;SDS011;33278;50.826;9.030;2022-12-20T01:42:53;5.20;;;4.70;;
47535;SDS011;33278;50.826;9.030;2022-12-20T01:45:28;4.90;;;4.40;;
47535;SDS011;33278;50.826;9.030;2022-12-20T01:47:59;5.50;;;5.00;;
47535;SDS011;33278;50.826;9.030;2022-12-20T01:50:30;5.27;;;4.77;;
47535;SDS011;33278;50.826;9.030;2022-12-20T01:53:00;6.10;;;5.50;;
47535;SDS011;33278;50.826;9.030;2022-12-20T01:55:34;5.47;;;4.82;;
47535;SDS011;33278;50.826;9.030;2022-12-20T01:58:05;5.13;;;4.63;;
47535;SDS011;33278;50.826;9.030;2022-12-20T02:00:38;4.60;;;4.20;;
47535;SDS011;33278;50.826;9.030;2022-12-20T02:03:09;4.90;;;4.30;;
47535;SDS011;33278;50.826;9.030;2022-12-20T02:05:42;4.10;;;3.70;;
47535;SDS011;33278;50.826;9.030;2022-12-20T02:08:15;4.07;;;3.67;;
47535;SDS011;33278;50.826;9.030;2022-12-20T02:14:24;4.20;;;3.80;;
47535;SDS011;33278;50.826;9.030;2022-12-20T02:28:38;4.18;;;3.78;;
47535;SDS011;33278;50.826;9.030;2022-12-20T02:31:28;4.43;;;4.03;;
47535;SDS011;33278;50.826;9.030;2022-12-20T02:34:03;4.32;;;3.92;;
47535;SDS011;33278;50.826;9.030;2022-12-20T02:36:36;4.78;;;4.38;;
47535;SDS011;33278;50.826;9.030;2022-12-20T02:39:08;4.30;;;3.90;;
47535;SDS011;33278;50.826;9.030;2022-12-20T02:41:48;4.07;;;3.67;;
47535;SDS011;33278;50.826;9.030;2022-12-20T02:44:23;4.07;;;3.67;;
47535;SDS011;33278;50.826;9.030;2022-12-20T02:47:20;4.25;;;3.85;;
47535;SDS011;33278;50.826;9.030;2022-12-20T02:49:56;4.20;;;3.80;;
47535;SDS011;33278;50.826;9.030;2022-12-20T02:52:26;4.50;;;4.10;;
47535;SDS011;33278;50.826;9.030;2022-12-20T02:55:00;4.30;;;3.90;;
47535;SDS011;33278;50.826;9.030;2022-12-20T02:57:42;4.22;;;3.83;;
47535;SDS011;33278;50.826;9.030;2022-12-20T03:00:18;4.03;;;3.63;;
47535;SDS011;33278;50.826;9.030;2022-12-20T03:02:52;4.25;;;3.85;;
47535;SDS011;33278;50.826;9.030;2022-12-20T03:05:44;4.17;;;3.77;;
47535;SDS011;33278;50.826;9.030;2022-12-20T03:08:16;4.20;;;3.80;;
47535;SDS011;33278;50.826;9.030;2022-12-20T03:10:47;3.90;;;3.60;;
47535;SDS011;33278;50.826;9.030;2022-12-20T03:13:18;4.05;;;3.65;;
47535;SDS011;33278;50.826;9.030;2022-12-20T03:15:49;4.13;;;3.72;;
47535;SDS011;33278;50.826;9.030;2022-12-20T03:18:19;4.47;;;4.07;;
47535;SDS011;33278;50.826;9.030;2022-12-20T03:20:50;3.90;;;3.50;;
47535;SDS011;33278;50.826;9.030;2022-12-20T03:23:20;4.00;;;3.60;;
47535;SDS011;33278;50.826;9.030;2022-12-20T03:25:51;4.00;;;3.40;;
47535;SDS011;33278;50.826;9.030;2022-12-20T03:28:21;4.13;;;3.73;;
47535;SDS011;33278;50.826;9.030;2022-12-20T03:30:51;4.03;;;3.63;;
47535;SDS011;33278;50.826;9.030;2022-12-20T03:33:22;3.83;;;3.43;;
47535;SDS011;33278;50.826;9.030;2022-12-20T03:35:52;3.97;;;3.60;;
47535;SDS011;33278;50.826;9.030;2022-12-20T03:38:22;4.33;;;3.60;;
47535;SDS011;33278;50.826;9.030;2022-12-20T03:40:52;3.97;;;3.67;;
47535;SDS011;33278;50.826;9.030;2022-12-20T03:43:23;4.13;;;3.73;;
47535;SDS011;33278;50.826;9.030;2022-12-20T03:45:53;4.17;;;3.77;;
47535;SDS011;33278;50.826;9.030;2022-12-20T03:48:23;4.15;;;3.75;;
47535;SDS011;33278;50.826;9.030;2022-12-20T03:50:54;4.03;;;3.63;;
47535;SDS011;33278;50.826;9.030;2022-12-20T03:53:24;3.57;;;3.27;;
47535;SDS011;33278;50.826;9.030;2022-12-20T03:55:54;4.10;;;3.70;;
47535;SDS011;33278;50.826;9.030;2022-12-20T03:58:25;3.55;;;3.25;;
47535;SDS011;33278;50.826;9.030;2022-12-20T04:00:55;4.10;;;3.70;;
47535;SDS011;33278;50.826;9.030;2022-12-20T04:03:26;4.43;;;4.03;;
47535;SDS011;33278;50.826;9.030;2022-12-20T04:05:56;3.47;;;3.17;;
47535;SDS011;33278;50.826;9.030;2022-12-20T04:08:27;3.33;;;2.90;;
47535;SDS011;33278;50.826;9.030;2022-12-20T04:10:57;4.07;;;3.72;;
47535;SDS011;33278;50.826;9.030;2022-12-20T04:13:46;3.25;;;2.85;;
47535;SDS011;33278;50.826;9.030;2022-12-20T04:16:22;3.33;;;2.92;;
47535;SDS011;33278;50.826;9.030;2022-12-20T04:18:54;3.97;;;3.27;;
47535;SDS011;33278;50.826;9.030;2022-12-20T04:21:26;3.50;;;3.20;;
47535;SDS011;33278;50.826;9.030;2022-12-20T04:23:59;3.50;;;3.20;;
47535;SDS011;33278;50.826;9.030;2022-12-20T04:26:30;3.50;;;3.20;;
47535;SDS011;33278;50.826;9.030;2022-12-20T04:29:01;3.22;;;2.92;;
47535;SDS011;33278;50.826;9.030;2022-12-20T04:31:31;3.50;;;3.20;;
47535;SDS011;33278;50.826;9.030;2022-12-20T04:34:02;3.58;;;3.28;;
47535;SDS011;33278;50.826;9.030;2022-12-20T04:36:32;3.70;;;3.30;;
47535;SDS011;33278;50.826;9.030;2022-12-20T04:39:03;3.45;;;3.15;;
47535;SDS011;33278;50.826;9.030;2022-12-20T04:41:34;3.40;;;3.10;;
47535;SDS011;33278;50.826;9.030;2022-12-20T04:44:04;3.60;;;3.30;;
47535;SDS011;33278;50.826;9.030;2022-12-20T04:46:34;3.50;;;3.20;;
47535;SDS011;33278;50.826;9.030;2022-12-20T04:49:04;3.10;;;2.80;;
47535;SDS011;33278;50.826;9.030;2022-12-20T04:51:35;3.20;;;2.90;;
47535;SDS011;33278;50.826;9.030;2022-12-20T04:54:05;3.27;;;2.97;;
47535;SDS011;33278;50.826;9.030;2022-12-20T04:56:35;3.30;;;3.00;;
47535;SDS011;33278;50.826;9.030;2022-12-20T04:59:06;3.13;;;2.70;;
47535;SDS011;33278;50.826;9.030;2022-12-20T05:01:36;3.20;;;2.90;;
47535;SDS011;33278;50.826;9.030;2022-12-20T05:04:06;3.30;;;3.00;;
47535;SDS011;33278;50.826;9.030;2022-12-20T05:06:37;3.10;;;2.80;;
47535;SDS011;33278;50.826;9.030;2022-12-20T05:09:07;3.50;;;3.13;;
47535;SDS011;33278;50.826;9.030;2022-12-20T05:11:37;3.47;;;3.17;;
47535;SDS011;33278;50.826;9.030;2022-12-20T05:14:07;3.23;;;2.93;;
47535;SDS011;33278;50.826;9.030;2022-12-20T05:16:38;3.27;;;2.97;;
47535;SDS011;33278;50.826;9.030;2022-12-20T05:19:08;2.90;;;2.60;;
47535;SDS011;33278;50.826;9.030;2022-12-20T05:21:38;2.90;;;2.60;;
47535;SDS011;33278;50.826;9.030;2022-12-20T05:24:27;3.20;;;2.90;;
47535;SDS011;33278;50.826;9.030;2022-12-20T05:27:16;3.05;;;2.75;;
47535;SDS011;33278;50.826;9.030;2022-12-20T05:29:46;3.30;;;3.00;;
47535;SDS011;33278;50.826;9.030;2022-12-20T05:32:16;3.33;;;3.03;;
47535;SDS011;33278;50.826;9.030;2022-12-20T05:34:47;3.07;;;2.77;;
47535;SDS011;33278;50.826;9.030;2022-12-20T05:37:17;3.03;;;2.73;;
47535;SDS011;33278;50.826;9.030;2022-12-20T05:39:47;3.30;;;3.00;;
47535;SDS011;33278;50.826;9.030;2022-12-20T05:42:18;3.10;;;2.80;;
47535;SDS011;33278;50.826;9.030;2022-12-20T05:44:48;3.23;;;2.90;;
47535;SDS011;33278;50.826;9.030;2022-12-20T05:47:18;3.37;;;3.03;;
47535;SDS011;33278;50.826;9.030;2022-12-20T05:49:49;3.17;;;2.87;;
47535;SDS011;33278;50.826;9.030;2022-12-20T05:52:19;2.70;;;2.50;;
47535;SDS011;33278;50.826;9.030;2022-12-20T05:54:49;3.42;;;3.13;;
47535;SDS011;33278;50.826;9.030;2022-12-20T05:57:20;3.17;;;2.80;;
47535;SDS011;33278;50.826;9.030;2022-12-20T05:59:50;3.40;;;3.00;;
47535;SDS011;33278;50.826;9.030;2022-12-20T06:02:20;3.17;;;2.87;;
47535;SDS011;33278;50.826;9.030;2022-12-20T06:04:50;3.20;;;2.90;;
47535;SDS011;33278;50.826;9.030;2022-12-20T06:07:21;3.10;;;2.80;;
47535;SDS011;33278;50.826;9.030;2022-12-20T06:09:51;2.73;;;2.53;;
47535;SDS011;33278;50.826;9.030;2022-12-20T06:12:21;3.05;;;2.75;;
47535;SDS011;33278;50.826;9.030;2022-12-20T06:14:52;3.20;;;2.90;;
47535;SDS011;33278;50.826;9.030;2022-12-20T06:17:22;3.33;;;3.00;;
47535;SDS011;33278;50.826;9.030;2022-12-20T06:19:53;3.37;;;2.73;;
47535;SDS011;33278;50.826;9.030;2022-12-20T06:22:23;3.53;;;2.80;;
47535;SDS011;33278;50.826;9.030;2022-12-20T06:24:53;2.93;;;2.70;;
47535;SDS011;33278;50.826;9.030;2022-12-20T06:27:24;3.00;;;2.70;;
47535;SDS011;33278;50.826;9.030;2022-12-20T06:29:54;3.40;;;3.00;;
47535;SDS011;33278;50.826;9.030;2022-12-20T06:32:24;3.20;;;2.90;;
47535;SDS011;33278;50.826;9.030;2022-12-20T06:34:55;3.13;;;2.73;;
47535;SDS011;33278;50.826;9.030;2022-12-20T06:37:25;3.03;;;2.77;;
47535;SDS011;33278;50.826;9.030;2022-12-20T06:39:55;3.50;;;3.20;;
47535;SDS011;33278;50.826;9.030;2022-12-20T06:42:26;2.77;;;2.57;;
47535;SDS011;33278;50.826;9.030;2022-12-20T06:44:56;3.50;;;3.00;;
47535;SDS011;33278;50.826;9.030;2022-12-20T06:47:26;3.77;;;3.13;;
47535;SDS011;33278;50.826;9.030;2022-12-20T06:49:57;3.67;;;3.00;;
47535;SDS011;33278;50.826;9.030;2022-12-20T06:52:27;3.33;;;3.03;;
47535;SDS011;33278;50.826;9.030;2022-12-20T06:54:57;3.42;;;3.08;;
47535;SDS011;33278;50.826;9.030;2022-12-20T06:57:28;3.03;;;2.73;;
47535;SDS011;33278;50.826;9.030;2022-12-20T06:59:58;3.43;;;3.13;;
47535;SDS011;33278;50.826;9.030;2022-12-20T07:02:28;3.03;;;2.73;;
47535;SDS011;33278;50.826;9.030;2022-12-20T07:04:58;3.13;;;2.80;;
47535;SDS011;33278;50.826;9.030;2022-12-20T07:07:29;3.25;;;2.95;;
47535;SDS011;33278;50.826;9.030;2022-12-20T07:09:59;3.40;;;3.10;;
47535;SDS011;33278;50.826;9.030;2022-12-20T07:12:29;3.10;;;2.80;;
47535;SDS011;33278;50.826;9.030;2022-12-20T07:15:01;3.17;;;2.88;;
47535;SDS011;33278;50.826;9.030;2022-12-20T07:17:31;3.00;;;2.70;;
47535;SDS011;33278;50.826;9.030;2022-12-20T07:20:01;3.33;;;3.03;;
47535;SDS011;33278;50.826;9.030;2022-12-20T07:22:31;3.60;;;3.30;;
47535;SDS011;33278;50.826;9.030;2022-12-20T07:25:03;3.35;;;2.97;;
47535;SDS011;33278;50.826;9.030;2022-12-20T07:27:34;3.17;;;2.80;;
47535;SDS011;33278;50.826;9.030;2022-12-20T07:30:05;3.00;;;2.70;;
47535;SDS011;33278;50.826;9.030;2022-12-20T07:32:36;2.80;;;2.60;;
47535;SDS011;33278;50.826;9.030;2022-12-20T07:35:06;3.00;;;2.53;;
47535;SDS011;33278;50.826;9.030;2022-12-20T07:37:37;3.28;;;2.97;;
47535;SDS011;33278;50.826;9.030;2022-12-20T07:40:07;2.97;;;2.67;;
47535;SDS011;33278;50.826;9.030;2022-12-20T07:42:38;3.10;;;2.80;;
47535;SDS011;33278;50.826;9.030;2022-12-20T07:45:09;3.10;;;2.80;;
47535;SDS011;33278;50.826;9.030;2022-12-20T07:47:39;2.93;;;2.73;;
47535;SDS011;33278;50.826;9.030;2022-12-20T07:50:10;2.93;;;2.63;;
47535;SDS011;33278;50.826;9.030;2022-12-20T07:52:41;3.25;;;2.95;;
47535;SDS011;33278;50.826;9.030;2022-12-20T07:55:15;3.13;;;2.83;;
47535;SDS011;33278;50.826;9.030;2022-12-20T07:57:48;3.25;;;2.67;;
47535;SDS011;33278;50.826;9.030;2022-12-20T08:00:21;3.25;;;2.63;;
47535;SDS011;33278;50.826;9.030;2022-12-20T08:02:55;2.83;;;2.60;;
47535;SDS011;33278;50.826;9.030;2022-12-20T08:05:48;3.13;;;2.83;;
47535;SDS011;33278;50.826;9.030;2022-12-20T08:08:22;3.15;;;2.78;;
47535;SDS011;33278;50.826;9.030;2022-12-20T08:10:53;2.80;;;2.40;;
47535;SDS011;33278;50.826;9.030;2022-12-20T08:13:23;3.03;;;2.73;;
47535;SDS011;33278;50.826;9.030;2022-12-20T08:15:54;2.97;;;2.67;;
47535;SDS011;33278;50.826;9.030;2022-12-20T08:18:24;3.03;;;2.73;;
47535;SDS011;33278;50.826;9.030;2022-12-20T08:20:55;2.80;;;2.50;;
47535;SDS011;33278;50.826;9.030;2022-12-20T08:23:25;3.10;;;2.80;;
47535;SDS011;33278;50.826;9.030;2022-12-20T08:25:55;3.40;;;3.10;;
47535;SDS011;33278;50.826;9.030;2022-12-20T08:28:28;3.10;;;2.80;;
47535;SDS011;33278;50.826;9.030;2022-12-20T08:31:06;3.35;;;2.80;;
47535;SDS011;33278;50.826;9.030;2022-12-20T08:33:38;3.10;;;2.80;;
47535;SDS011;33278;50.826;9.030;2022-12-20T08:36:10;3.08;;;2.78;;
47535;SDS011;33278;50.826;9.030;2022-12-20T08:38:41;3.00;;;2.70;;
47535;SDS011;33278;50.826;9.030;2022-12-20T08:41:12;3.43;;;2.83;;
47535;SDS011;33278;50.826;9.030;2022-12-20T08:43:45;2.72;;;2.53;;
47535;SDS011;33278;50.826;9.030;2022-12-20T08:46:15;2.67;;;2.47;;
47535;SDS011;33278;50.826;9.030;2022-12-20T08:48:45;3.20;;;2.90;;
47535;SDS011;33278;50.826;9.030;2022-12-20T08:51:16;3.30;;;3.00;;
47535;SDS011;33278;50.826;9.030;2022-12-20T08:53:46;3.47;;;3.17;;
47535;SDS011;33278;50.826;9.030;2022-12-20T08:56:17;2.70;;;2.50;;
47535;SDS011;33278;50.826;9.030;2022-12-20T08:58:47;2.47;;;2.28;;
47535;SDS011;33278;50.826;9.030;2022-12-20T09:01:18;2.90;;;2.60;;
47535;SDS011;33278;50.826;9.030;2022-12-20T09:03:50;3.03;;;2.73;;
47535;SDS011;33278;50.826;9.030;2022-12-20T09:06:21;3.00;;;2.70;;
47535;SDS011;33278;50.826;9.030;2022-12-20T09:08:51;2.70;;;2.50;;
47535;SDS011;33278;50.826;9.030;2022-12-20T09:11:23;2.33;;;2.13;;
47535;SDS011;33278;50.826;9.030;2022-12-20T09:13:55;2.90;;;2.65;;
47535;SDS011;33278;50.826;9.030;2022-12-20T09:16:28;2.92;;;2.55;;
47535;SDS011;33278;50.826;9.030;2022-12-20T09:19:02;2.50;;;2.30;;
47535;SDS011;33278;50.826;9.030;2022-12-20T09:21:33;2.83;;;2.58;;
47535;SDS011;33278;50.826;9.030;2022-12-20T09:24:04;2.70;;;2.50;;
47535;SDS011;33278;50.826;9.030;2022-12-20T09:26:35;3.00;;;2.70;;
47535;SDS011;33278;50.826;9.030;2022-12-20T09:29:05;5.28;;;2.53;;
47535;SDS011;33278;50.826;9.030;2022-12-20T09:31:36;6.70;;;3.50;;
47535;SDS011;33278;50.826;9.030;2022-12-20T09:34:07;6.00;;;2.73;;
47535;SDS011;33278;50.826;9.030;2022-12-20T09:36:39;2.63;;;2.42;;
47535;SDS011;33278;50.826;9.030;2022-12-20T09:39:09;6.60;;;2.50;;
47535;SDS011;33278;50.826;9.030;2022-12-20T09:41:40;3.20;;;2.60;;
47535;SDS011;33278;50.826;9.030;2022-12-20T09:44:15;4.60;;;2.55;;
47535;SDS011;33278;50.826;9.030;2022-12-20T09:46:51;2.90;;;2.43;;
47535;SDS011;33278;50.826;9.030;2022-12-20T09:49:26;7.13;;;3.20;;
47535;SDS011;33278;50.826;9.030;2022-12-20T10:00:22;2.75;;;2.20;;
47535;SDS011;33278;50.826;9.030;2022-12-20T10:02:53;3.47;;;2.45;;
47535;SDS011;33278;50.826;9.030;2022-12-20T10:17:19;3.03;;;2.30;;
47535;SDS011;33278;50.826;9.030;2022-12-20T10:20:11;3.75;;;2.45;;
47535;SDS011;33278;50.826;9.030;2022-12-20T10:22:53;4.83;;;2.67;;
47535;SDS011;33278;50.826;9.030;2022-12-20T10:25:32;2.70;;;2.50;;
47535;SDS011;33278;50.826;9.030;2022-12-20T10:28:04;8.25;;;2.30;;
47535;SDS011;33278;50.826;9.030;2022-12-20T10:30:41;3.70;;;2.50;;
47535;SDS011;33278;50.826;9.030;2022-12-20T10:33:19;3.80;;;2.35;;
47535;SDS011;33278;50.826;9.030;2022-12-20T10:35:51;5.07;;;2.20;;
47535;SDS011;33278;50.826;9.030;2022-12-20T10:38:21;3.23;;;2.60;;
47535;SDS011;33278;50.826;9.030;2022-12-20T10:43:23;4.83;;;2.27;;
47535;SDS011;33278;50.826;9.030;2022-12-20T10:45:58;3.35;;;2.35;;
47535;SDS011;33278;50.826;9.030;2022-12-20T10:48:32;7.93;;;2.70;;
47535;SDS011;33278;50.826;9.030;2022-12-20T10:53:54;4.17;;;2.40;;
47535;SDS011;33278;50.826;9.030;2022-12-20T10:56:33;3.17;;;2.22;;
47535;SDS011;33278;50.826;9.030;2022-12-20T11:01:45;2.42;;;2.22;;
47535;SDS011;33278;50.826;9.030;2022-12-20T11:04:27;2.60;;;2.25;;
47535;SDS011;33278;50.826;9.030;2022-12-20T11:07:19;2.72;;;2.22;;
47535;SDS011;33278;50.826;9.030;2022-12-20T11:09:56;4.10;;;2.28;;
47535;SDS011;33278;50.826;9.030;2022-12-20T11:12:29;2.90;;;2.30;;
47535;SDS011;33278;50.826;9.030;2022-12-20T11:15:07;3.25;;;2.10;;
47535;SDS011;33278;50.826;9.030;2022-12-20T11:17:54;2.90;;;2.30;;
47535;SDS011;33278;50.826;9.030;2022-12-20T11:23:57;2.40;;;2.20;;
47535;SDS011;33278;50.826;9.030;2022-12-20T11:38:05;2.50;;;2.20;;
47535;SDS011;33278;50.826;9.030;2022-12-20T11:52:24;21.48;;;3.00;;
47535;SDS011;33278;50.826;9.030;2022-12-20T11:55:17;3.65;;;2.20;;
47535;SDS011;33278;50.826;9.030;2022-12-20T12:00:34;6.00;;;2.47;;
47535;SDS011;33278;50.826;9.030;2022-12-20T12:06:01;2.03;;;1.87;;
47535;SDS011;33278;50.826;9.030;2022-12-20T12:08:44;2.92;;;2.25;;
47535;SDS011;33278;50.826;9.030;2022-12-20T12:11:37;7.68;;;3.20;;
47535;SDS011;33278;50.826;9.030;2022-12-20T12:17:32;4.57;;;2.38;;
47535;SDS011;33278;50.826;9.030;2022-12-20T12:20:21;4.37;;;2.30;;
47535;SDS011;33278;50.826;9.030;2022-12-20T12:23:02;2.42;;;2.20;;
47535;SDS011;33278;50.826;9.030;2022-12-20T12:25:39;2.72;;;2.00;;
47535;SDS011;33278;50.826;9.030;2022-12-20T12:28:11;2.50;;;1.90;;
47535;SDS011;33278;50.826;9.030;2022-12-20T12:30:45;5.03;;;2.38;;
47535;SDS011;33278;50.826;9.030;2022-12-20T12:33:31;5.90;;;2.47;;
47535;SDS011;33278;50.826;9.030;2022-12-20T12:39:18;3.67;;;2.25;;
47535;SDS011;33278;50.826;9.030;2022-12-20T12:44:45;3.70;;;2.08;;
47535;SDS011;33278;50.826;9.030;2022-12-20T12:50:25;4.43;;;2.00;;
47535;SDS011;33278;50.826;9.030;2022-12-20T12:53:06;2.27;;;1.97;;
47535;SDS011;33278;50.826;9.030;2022-12-20T12:55:43;3.85;;;2.10;;
47535;SDS011;33278;50.826;9.030;2022-12-20T13:00:54;2.03;;;1.83;;
47535;SDS011;33278;50.826;9.030;2022-12-20T13:04:28;2.50;;;2.10;;
47535;SDS011;33278;50.826;9.030;2022-12-20T13:11:38;2.30;;;2.10;;
47535;SDS011;33278;50.826;9.030;2022-12-20T13:16:47;2.40;;;2.10;;
47535;SDS011;33278;50.826;9.030;2022-12-20T13:21:57;5.95;;;2.85;;
47535;SDS011;33278;50.826;9.030;2022-12-20T13:27:38;3.45;;;2.47;;
47535;SDS011;33278;50.826;9.030;2022-12-20T13:40:39;6.20;;;2.33;;
47535;SDS011;33278;50.826;9.030;2022-12-20T13:43:20;3.22;;;2.35;;
47535;SDS011;33278;50.826;9.030;2022-12-20T13:51:19;2.67;;;2.00;;
47535;SDS011;33278;50.826;9.030;2022-12-20T13:53:51;2.70;;;2.10;;
47535;SDS011;33278;50.826;9.030;2022-12-20T13:59:02;2.22;;;2.00;;
47535;SDS011;33278;50.826;9.030;2022-12-20T14:01:35;3.55;;;2.20;;
47535;SDS011;33278;50.826;9.030;2022-12-20T14:04:06;2.72;;;2.05;;
47535;SDS011;33278;50.826;9.030;2022-12-20T14:06:36;4.60;;;2.03;;
47535;SDS011;33278;50.826;9.030;2022-12-20T14:12:23;3.33;;;2.10;;
47535;SDS011;33278;50.826;9.030;2022-12-20T14:14:54;2.30;;;2.03;;
47535;SDS011;33278;50.826;9.030;2022-12-20T14:17:29;2.15;;;1.90;;
47535;SDS011;33278;50.826;9.030;2022-12-20T14:22:41;2.25;;;1.85;;
47535;SDS011;33278;50.826;9.030;2022-12-20T14:28:03;2.03;;;1.85;;
47535;SDS011;33278;50.826;9.030;2022-12-20T14:30:41;2.33;;;2.13;;
47535;SDS011;33278;50.826;9.030;2022-12-20T14:38:49;2.00;;;1.80;;
47535;SDS011;33278;50.826;9.030;2022-12-20T14:41:39;2.38;;;2.17;;
47535;SDS011;33278;50.826;9.030;2022-12-20T14:44:16;2.20;;;2.00;;
47535;SDS011;33278;50.826;9.030;2022-12-20T14:46:53;3.92;;;2.15;;
47535;SDS011;33278;50.826;9.030;2022-12-20T14:49:29;3.20;;;2.33;;
47535;SDS011;33278;50.826;9.030;2022-12-20T14:54:44;2.25;;;2.05;;
47535;SDS011;33278;50.826;9.030;2022-12-20T14:57:20;2.50;;;2.30;;
47535;SDS011;33278;50.826;9.030;2022-12-20T15:08:22;2.40;;;2.03;;
47535;SDS011;33278;50.826;9.030;2022-12-20T15:13:40;3.28;;;2.00;;
47535;SDS011;33278;50.826;9.030;2022-12-20T15:16:16;2.65;;;2.28;;
47535;SDS011;33278;50.826;9.030;2022-12-20T15:18:52;2.47;;;2.15;;
47535;SDS011;33278;50.826;9.030;2022-12-20T15:24:01;3.50;;;2.00;;
47535;SDS011;33278;50.826;9.030;2022-12-20T15:26:37;3.15;;;2.20;;
47535;SDS011;33278;50.826;9.030;2022-12-20T15:29:14;5.10;;;2.07;;
47535;SDS011;33278;50.826;9.030;2022-12-20T15:31:50;2.30;;;1.92;;
47535;SDS011;33278;50.826;9.030;2022-12-20T15:34:28;4.45;;;2.22;;
47535;SDS011;33278;50.826;9.030;2022-12-20T15:37:00;2.88;;;2.05;;
47535;SDS011;33278;50.826;9.030;2022-12-20T15:39:31;3.72;;;2.00;;
47535;SDS011;33278;50.826;9.030;2022-12-20T15:42:03;2.38;;;1.95;;
47535;SDS011;33278;50.826;9.030;2022-12-20T15:44:34;3.20;;;2.15;;
47535;SDS011;33278;50.826;9.030;2022-12-20T15:47:08;2.67;;;1.90;;
47535;SDS011;33278;50.826;9.030;2022-12-20T15:49:42;3.28;;;2.22;;
47535;SDS011;33278;50.826;9.030;2022-12-20T15:52:17;24.98;;;3.67;;
47535;SDS011;33278;50.826;9.030;2022-12-20T15:54:49;2.70;;;2.22;;
47535;SDS011;33278;50.826;9.030;2022-12-20T15:57:19;3.50;;;2.10;;
47535;SDS011;33278;50.826;9.030;2022-12-20T15:59:50;3.33;;;1.90;;
47535;SDS011;33278;50.826;9.030;2022-12-20T16:02:24;3.33;;;2.10;;
47535;SDS011;33278;50.826;9.030;2022-12-20T16:04:56;2.90;;;2.00;;
47535;SDS011;33278;50.826;9.030;2022-12-20T16:07:27;3.23;;;2.17;;
47535;SDS011;33278;50.826;9.030;2022-12-20T16:09:57;2.70;;;2.00;;
47535;SDS011;33278;50.826;9.030;2022-12-20T16:12:29;3.10;;;2.30;;
47535;SDS011;33278;50.826;9.030;2022-12-20T16:15:03;5.05;;;2.15;;
47535;SDS011;33278;50.826;9.030;2022-12-20T16:17:34;2.13;;;1.93;;
47535;SDS011;33278;50.826;9.030;2022-12-20T16:20:04;2.70;;;2.30;;
47535;SDS011;33278;50.826;9.030;2022-12-20T16:22:35;2.90;;;2.17;;
47535;SDS011;33278;50.826;9.030;2022-12-20T16:25:05;10.80;;;2.53;;
47535;SDS011;33278;50.826;9.030;2022-12-20T16:27:49;20.50;;;3.65;;
47535;SDS011;33278;50.826;9.030;2022-12-20T16:30:19;3.83;;;2.20;;
47535;SDS011;33278;50.826;9.030;2022-12-20T16:32:51;5.80;;;2.25;;
47535;SDS011;33278;50.826;9.030;2022-12-20T16:35:22;5.40;;;2.00;;
47535;SDS011;33278;50.826;9.030;2022-12-20T16:38:01;3.13;;;1.90;;
47535;SDS011;33278;50.826;9.030;2022-12-20T16:40:32;3.90;;;2.28;;
47535;SDS011;33278;50.826;9.030;2022-12-20T16:43:02;3.63;;;2.20;;
47535;SDS011;33278;50.826;9.030;2022-12-20T16:45:32;3.17;;;2.07;;
47535;SDS011;33278;50.826;9.030;2022-12-20T16:48:03;3.53;;;1.95;;
47535;SDS011;33278;50.826;9.030;2022-12-20T16:50:34;3.57;;;2.17;;
47535;SDS011;33278;50.826;9.030;2022-12-20T16:53:11;2.40;;;1.90;;
47535;SDS011;33278;50.826;9.030;2022-12-20T16:55:44;2.65;;;1.88;;
47535;SDS011;33278;50.826;9.030;2022-12-20T16:58:14;4.00;;;1.90;;
47535;SDS011;33278;50.826;9.030;2022-12-20T17:00:44;2.93;;;1.93;;
47535;SDS011;33278;50.826;9.030;2022-12-20T17:03:15;3.33;;;1.90;;
47535;SDS011;33278;50.826;9.030;2022-12-20T17:05:45;2.40;;;2.10;;
47535;SDS011;33278;50.826;9.030;2022-12-20T17:08:15;4.20;;;2.22;;
47535;SDS011;33278;50.826;9.030;2022-12-20T17:10:46;2.47;;;1.97;;
47535;SDS011;33278;50.826;9.030;2022-12-20T17:13:16;2.25;;;1.83;;
47535;SDS011;33278;50.826;9.030;2022-12-20T17:15:47;3.60;;;2.20;;
47535;SDS011;33278;50.826;9.030;2022-12-20T17:18:17;2.30;;;2.10;;
47535;SDS011;33278;50.826;9.030;2022-12-20T17:20:48;2.45;;;1.95;;
47535;SDS011;33278;50.826;9.030;2022-12-20T17:23:18;2.20;;;1.93;;
47535;SDS011;33278;50.826;9.030;2022-12-20T17:25:48;3.90;;;2.63;;
47535;SDS011;33278;50.826;9.030;2022-12-20T17:28:19;2.57;;;2.10;;
47535;SDS011;33278;50.826;9.030;2022-12-20T17:30:49;5.27;;;2.53;;
47535;SDS011;33278;50.826;9.030;2022-12-20T17:33:19;3.28;;;2.60;;
47535;SDS011;33278;50.826;9.030;2022-12-20T17:35:50;3.23;;;2.53;;
47535;SDS011;33278;50.826;9.030;2022-12-20T17:38:20;2.90;;;2.53;;
47535;SDS011;33278;50.826;9.030;2022-12-20T17:40:51;2.97;;;2.58;;
47535;SDS011;33278;50.826;9.030;2022-12-20T17:43:21;4.30;;;2.83;;
47535;SDS011;33278;50.826;9.030;2022-12-20T17:45:52;4.20;;;2.90;;
47535;SDS011;33278;50.826;9.030;2022-12-20T17:48:22;3.73;;;2.90;;
47535;SDS011;33278;50.826;9.030;2022-12-20T17:50:52;3.13;;;2.40;;
47535;SDS011;33278;50.826;9.030;2022-12-20T17:53:23;9.27;;;5.07;;